Time;durP1;ratioP1;P1;durP2;ratioP2;P2;SDS_P1;SDS_P2;PMS_P1;PMS_P2;Temp;Humidity;BMP_temperature;BMP_pressure;BME280_temperature;BME280_humidity;BME280_pressure;Samples;Min_cycle;Max_cycle;Signal;HPM_P1;HPM_P2
2021/01/14 00:02:04;;;;;;;5.65;3.58;;;;;;;19.96;38.63;100034.06;5129296;28;20026;-75
2021/01/14 00:04:29;;;;;;;4.82;3.45;;;;;;;19.93;38.62;100035.00;5132115;28;20507;-78
2021/01/14 00:06:56;;;;;;;5.05;3.78;;;;;;;19.92;38.64;100034.16;5133694;28;20069;-75
2021/01/14 00:09:22;;;;;;;5.55;3.58;;;;;;;19.91;38.62;100045.59;5133065;28;20036;-74
2021/01/14 00:11:48;;;;;;;5.93;3.50;;;;;;;19.92;38.68;100060.47;5116589;28;20144;-76
2021/01/14 00:14:13;;;;;;;7.93;3.97;;;;;;;19.91;38.75;100057.84;5112626;28;20023;-76
2021/01/14 00:16:39;;;;;;;4.47;3.30;;;;;;;19.90;38.60;100057.00;5122658;28;20107;-75
2021/01/14 00:19:05;;;;;;;6.70;3.50;;;;;;;19.90;38.66;100048.22;5114565;28;20051;-74
2021/01/14 00:21:31;;;;;;;5.43;3.38;;;;;;;19.90;38.77;100050.84;5115269;28;20046;-74
2021/01/14 00:23:56;;;;;;;5.13;3.58;;;;;;;19.89;38.55;100043.88;5115176;28;20507;-76
2021/01/14 00:26:22;;;;;;;5.47;3.50;;;;;;;19.89;38.62;100052.63;5113289;28;20467;-74
2021/01/14 00:28:47;;;;;;;5.25;3.80;;;;;;;19.89;38.63;100043.88;5115138;28;20050;-75
2021/01/14 00:31:12;;;;;;;5.18;3.60;;;;;;;19.88;38.60;100037.75;5115097;28;20062;-75
2021/01/14 00:33:38;;;;;;;5.15;3.55;;;;;;;19.89;38.61;100028.09;5114705;28;20035;-75
2021/01/14 00:36:03;;;;;;;6.50;3.17;;;;;;;19.88;38.56;100035.13;5115551;28;20042;-75
2021/01/14 00:38:29;;;;;;;4.93;3.10;;;;;;;19.88;38.50;100031.63;5113484;28;20114;-74
2021/01/14 00:40:54;;;;;;;5.60;3.92;;;;;;;19.88;38.61;100035.13;5114415;28;20512;-75
2021/01/14 00:43:20;;;;;;;5.68;3.30;;;;;;;19.87;38.61;100037.78;5114985;28;20134;-75
2021/01/14 00:45:48;;;;;;;4.38;3.35;;;;;;;19.88;38.50;100021.09;5113501;28;20039;-74
2021/01/14 00:48:13;;;;;;;4.55;2.92;;;;;;;19.88;38.55;100024.59;5101779;28;20081;-75
2021/01/14 00:50:39;;;;;;;4.82;3.50;;;;;;;19.87;38.62;100019.38;5093282;28;20115;-76
2021/01/14 00:53:04;;;;;;;4.97;3.17;;;;;;;19.86;38.75;100028.13;5092654;28;20032;-75
2021/01/14 00:55:29;;;;;;;4.88;3.35;;;;;;;19.86;38.75;100015.84;5094096;28;20043;-75
2021/01/14 00:57:55;;;;;;;4.82;3.13;;;;;;;19.87;38.47;100012.34;5093101;28;20048;-74
2021/01/14 01:00:22;;;;;;;6.57;3.25;;;;;;;19.89;38.75;100028.97;5094183;28;20032;-74
2021/01/14 01:02:52;;;;;;;4.63;3.38;;;;;;;19.87;38.58;100030.75;5107731;28;20027;-72
2021/01/14 01:05:19;;;;;;;4.57;2.95;;;;;;;19.86;38.68;100030.75;5114079;28;20084;-75
2021/01/14 01:07:52;;;;;;;4.03;2.88;;;;;;;19.84;38.33;100032.56;5114189;28;20039;-75
2021/01/14 01:10:19;;;;;;;5.75;3.08;;;;;;;19.86;38.59;100034.25;5111423;28;20032;-76
2021/01/14 01:12:50;;;;;;;4.90;3.10;;;;;;;19.85;38.68;100043.03;5098156;28;20031;-75
2021/01/14 01:15:15;;;;;;;5.00;2.92;;;;;;;19.89;38.95;100038.59;5113973;28;20555;-73
2021/01/14 01:17:41;;;;;;;4.13;3.03;;;;;;;19.88;38.45;100028.97;5114284;28;20114;-73
2021/01/14 01:20:07;;;;;;;4.95;3.00;;;;;;;19.86;38.75;100023.75;5112458;28;20076;-74
2021/01/14 01:22:32;;;;;;;4.25;2.90;;;;;;;19.86;38.49;100025.50;5113733;28;20043;-75
2021/01/14 01:24:57;;;;;;;5.13;2.72;;;;;;;19.85;38.61;100019.38;5113636;28;20097;-72
2021/01/14 01:27:23;;;;;;;4.82;2.90;;;;;;;19.85;38.65;100023.78;5112561;28;20054;-72
2021/01/14 01:29:48;;;;;;;4.57;2.95;;;;;;;19.86;38.61;100025.50;5113642;28;20115;-73
2021/01/14 01:32:14;;;;;;;4.38;2.70;;;;;;;19.85;38.68;100015.91;5112800;28;20077;-74
2021/01/14 01:34:39;;;;;;;4.05;2.83;;;;;;;19.86;39.05;100021.09;5113539;28;20047;-75
2021/01/14 01:37:04;;;;;;;5.68;3.00;;;;;;;19.86;38.61;100025.50;5113774;28;20122;-74
2021/01/14 01:39:30;;;;;;;5.22;3.20;;;;;;;19.85;38.32;100024.63;5113251;28;20518;-78
2021/01/14 01:41:57;;;;;;;4.97;2.85;;;;;;;19.85;38.68;100031.69;5108870;28;20122;-76
2021/01/14 01:44:24;;;;;;;4.93;3.05;;;;;;;19.84;38.60;100037.84;5113713;28;20118;-74
2021/01/14 01:46:54;;;;;;;3.80;2.45;;;;;;;19.84;38.72;100045.72;5113883;28;20044;-75
2021/01/14 01:49:19;;;;;;;3.83;2.95;;;;;;;19.83;38.61;100044.00;5111816;28;20125;-75
2021/01/14 01:51:44;;;;;;;5.60;3.28;;;;;;;19.85;38.64;100052.72;5113423;28;20499;-73
2021/01/14 01:54:11;;;;;;;5.47;3.42;;;;;;;19.82;38.65;100052.78;5113338;28;20031;-74
2021/01/14 01:56:36;;;;;;;5.38;3.15;;;;;;;19.83;38.58;100051.88;5113563;28;20039;-73
2021/01/14 01:59:03;;;;;;;4.20;2.70;;;;;;;19.82;38.56;100060.66;5113282;28;20046;-74
2021/01/14 02:01:29;;;;;;;4.97;3.10;;;;;;;19.85;38.62;100057.97;5110415;28;20062;-75
2021/01/14 02:03:55;;;;;;;4.00;2.88;;;;;;;19.85;38.61;100061.44;5104520;28;20562;-77
2021/01/14 02:06:21;;;;;;;5.47;2.97;;;;;;;19.85;38.50;100073.75;5112932;28;20054;-73
2021/01/14 02:08:50;;;;;;;4.63;3.08;;;;;;;19.83;38.52;100070.28;5113249;28;20111;-73
2021/01/14 02:11:27;;;;;;;4.43;2.38;;;;;;;19.81;38.47;100072.06;5101614;28;20512;-73
2021/01/14 02:14:12;;;;;;;3.22;2.33;;;;;;;19.82;38.53;100068.56;5091498;28;20028;-73
2021/01/14 02:16:37;;;;;;;3.97;2.90;;;;;;;19.82;38.80;100064.13;5107018;28;20492;-74
2021/01/14 02:19:13;;;;;;;4.60;2.83;;;;;;;19.80;38.59;100065.09;5112957;28;20069;-74
2021/01/14 02:21:39;;;;;;;4.85;2.72;;;;;;;19.81;38.77;100072.06;5112726;28;20046;-74
2021/01/14 02:24:41;;;;;;;4.63;2.70;;;;;;;19.80;38.53;100068.56;5111471;28;20114;-74
2021/01/14 02:27:08;;;;;;;3.67;2.50;;;;;;;19.80;38.50;100068.56;5111163;28;20500;-73
2021/01/14 02:29:35;;;;;;;5.57;2.65;;;;;;;19.82;38.61;100076.44;5112975;28;20042;-73
2021/01/14 02:32:01;;;;;;;5.13;2.97;;;;;;;19.80;38.59;100067.72;5112902;28;20038;-75
2021/01/14 02:34:27;;;;;;;4.47;2.45;;;;;;;19.81;38.53;100079.97;5112111;28;20035;-75
2021/01/14 02:36:52;;;;;;;5.32;2.60;;;;;;;19.81;38.79;100083.44;5112688;28;20119;-74
2021/01/14 02:39:17;;;;;;;3.97;2.47;;;;;;;19.81;38.51;100077.34;5110938;28;20044;-75
2021/01/14 02:41:44;;;;;;;4.88;2.53;;;;;;;19.81;38.58;100082.59;5112717;28;20057;-74
2021/01/14 02:44:09;;;;;;;4.03;2.60;;;;;;;19.81;38.80;100080.81;5112721;28;20547;-74
2021/01/14 02:46:35;;;;;;;4.72;2.97;;;;;;;19.80;38.61;100084.34;5112085;28;20130;-74
2021/01/14 02:49:06;;;;;;;4.18;2.45;;;;;;;19.78;38.59;100081.75;5112023;28;20089;-74
2021/01/14 02:51:49;;;;;;;3.92;2.97;;;;;;;19.80;38.45;100080.88;5112659;28;20042;-75
2021/01/14 02:54:17;;;;;;;4.68;2.55;;;;;;;19.82;38.48;100079.06;5110770;28;20036;-73
2021/01/14 02:56:47;;;;;;;4.03;2.63;;;;;;;19.80;38.46;100076.44;5112410;28;20118;-74
2021/01/14 02:59:12;;;;;;;4.75;2.67;;;;;;;19.80;38.64;100078.22;5112430;28;20074;-72
2021/01/14 03:01:38;;;;;;;4.40;2.67;;;;;;;19.78;38.73;100084.38;5102571;28;20062;-74
2021/01/14 03:04:03;;;;;;;3.75;2.65;;;;;;;19.80;38.75;100086.97;5111706;28;20036;-73
2021/01/14 03:06:29;;;;;;;5.05;2.72;;;;;;;19.79;38.64;100079.97;5111859;28;20051;-74
2021/01/14 03:08:54;;;;;;;4.30;2.50;;;;;;;19.77;38.76;100085.28;5112224;28;20031;-76
2021/01/14 03:11:30;;;;;;;3.60;2.42;;;;;;;19.77;38.80;100090.53;5110799;28;20039;-74
2021/01/14 03:13:56;;;;;;;3.35;2.45;;;;;;;19.78;38.61;100094.91;5108015;28;20114;-75
2021/01/14 03:16:22;;;;;;;4.80;2.53;;;;;;;19.78;38.89;100094.91;5091960;28;20143;-74
2021/01/14 03:18:48;;;;;;;4.38;2.60;;;;;;;19.77;38.54;100108.94;5107207;28;20403;-74
2021/01/14 03:21:23;;;;;;;3.97;2.60;;;;;;;19.77;38.56;100108.94;5112061;28;20036;-74
2021/01/14 03:23:50;;;;;;;3.58;2.20;;;;;;;19.78;38.79;100123.81;5111654;28;20028;-74
2021/01/14 03:26:16;;;;;;;4.60;2.58;;;;;;;19.80;38.75;100118.53;5111672;28;20464;-74
2021/01/14 03:28:42;;;;;;;4.05;2.53;;;;;;;19.79;38.64;100114.16;5111800;28;20110;-74
2021/01/14 03:31:09;;;;;;;3.47;2.42;;;;;;;19.79;38.69;100122.06;5111615;28;20119;-74
2021/01/14 03:33:34;;;;;;;4.45;2.67;;;;;;;19.76;38.67;100112.47;5109870;28;20039;-79
2021/01/14 03:36:05;;;;;;;3.88;2.42;;;;;;;19.78;38.89;100115.94;5107618;28;20032;-74
2021/01/14 03:38:35;;;;;;;6.00;2.60;;;;;;;19.76;38.61;100109.84;5109867;28;20411;-76
2021/01/14 03:41:01;;;;;;;4.07;2.33;;;;;;;19.77;38.60;100119.47;5110568;28;20039;-75
2021/01/14 03:43:26;;;;;;;4.13;2.70;;;;;;;19.78;38.63;100117.69;5111238;28;20173;-75
2021/01/14 03:45:51;;;;;;;4.60;2.63;;;;;;;19.80;38.62;100128.19;5111537;28;20039;-73
2021/01/14 03:48:17;;;;;;;3.90;2.42;;;;;;;19.78;38.49;100120.31;5111307;28;20051;-74
2021/01/14 03:50:42;;;;;;;4.15;2.22;;;;;;;19.77;38.49;100129.97;5111335;28;20070;-74
2021/01/14 03:53:08;;;;;;;3.42;2.50;;;;;;;19.78;38.53;100122.94;5111732;28;20043;-75
2021/01/14 03:55:34;;;;;;;5.88;2.35;;;;;;;19.77;38.55;100131.75;5111604;28;20031;-74
2021/01/14 03:57:59;;;;;;;5.07;2.55;;;;;;;19.79;38.40;100127.31;5111482;28;20045;-73
2021/01/14 04:00:25;;;;;;;3.55;2.40;;;;;;;19.78;38.60;100129.09;5111299;28;20075;-75
2021/01/14 04:02:51;;;;;;;3.17;2.08;;;;;;;19.80;38.20;100122.94;5107058;28;20031;-74
2021/01/14 04:05:16;;;;;;;3.58;2.20;;;;;;;19.77;38.61;100129.97;5110239;28;20036;-75
2021/01/14 04:07:42;;;;;;;3.35;2.08;;;;;;;19.78;38.75;100130.84;5111651;28;20089;-74
2021/01/14 04:10:08;;;;;;;2.95;2.10;;;;;;;19.77;38.60;100132.63;5111288;28;20036;-72
2021/01/14 04:12:34;;;;;;;2.75;2.00;;;;;;;19.76;38.62;100138.75;5111620;28;20089;-74
2021/01/14 04:14:59;;;;;;;2.92;2.00;;;;;;;19.78;38.81;100136.97;5109916;28;20086;-75
2021/01/14 04:17:26;;;;;;;3.30;2.10;;;;;;;19.78;38.60;100136.09;5111312;28;20036;-76
2021/01/14 04:19:51;;;;;;;3.25;1.80;;;;;;;19.77;38.50;100137.88;5111497;28;20039;-74
2021/01/14 04:22:17;;;;;;;2.75;1.70;;;;;;;19.77;38.68;100143.13;5111624;28;20035;-75
2021/01/14 04:24:42;;;;;;;4.05;2.20;;;;;;;19.75;38.43;100144.06;5111182;28;20437;-73
2021/01/14 04:27:08;;;;;;;2.70;1.75;;;;;;;19.76;38.49;100141.41;5114909;28;20078;-74
2021/01/14 04:29:33;;;;;;;4.85;2.03;;;;;;;19.76;38.69;100137.91;5115206;28;20089;-73
2021/01/14 04:31:59;;;;;;;2.70;1.88;;;;;;;19.74;38.64;100140.56;5098765;28;20040;-77
2021/01/14 04:34:24;;;;;;;2.25;1.52;;;;;;;19.76;38.58;100132.66;5097342;28;20028;-75
2021/01/14 04:37:00;;;;;;;3.17;1.98;;;;;;;19.74;38.47;100135.28;5115043;28;20043;-73
2021/01/14 04:39:26;;;;;;;2.72;1.60;;;;;;;19.74;38.67;100137.94;5114747;27;20052;-74
2021/01/14 04:41:57;;;;;;;2.58;1.65;;;;;;;19.74;38.77;100142.34;5114669;28;20039;-74
2021/01/14 04:44:25;;;;;;;2.67;1.65;;;;;;;19.73;38.61;100140.59;5114489;28;20039;-75
2021/01/14 04:46:57;;;;;;;2.85;1.50;;;;;;;19.73;38.69;100143.22;5114655;28;20039;-74
2021/01/14 04:49:22;;;;;;;2.63;1.58;;;;;;;19.72;38.54;100150.22;5113546;28;20169;-72
2021/01/14 04:51:48;;;;;;;2.72;1.30;;;;;;;19.73;38.82;100154.59;5113216;28;20102;-74
2021/01/14 04:54:22;;;;;;;2.47;1.40;;;;;;;19.75;38.47;100150.19;5114576;28;20567;-74
2021/01/14 04:56:54;;;;;;;1.70;1.33;;;;;;;19.74;38.43;100161.59;5114584;28;20031;-74
2021/01/14 04:59:22;;;;;;;3.47;1.75;;;;;;;19.77;38.33;100155.44;5112940;28;20030;-75
2021/01/14 05:01:51;;;;;;;2.88;1.67;;;;;;;19.76;38.50;100159.81;5110137;28;20085;-75
2021/01/14 05:04:21;;;;;;;3.33;1.58;;;;;;;19.76;38.35;100153.69;5112610;28;20102;-75
2021/01/14 05:06:55;;;;;;;3.78;1.77;;;;;;;19.76;38.57;100158.94;5114370;28;20498;-73
2021/01/14 05:09:24;;;;;;;2.78;1.52;;;;;;;19.75;38.61;100155.44;5113068;28;20430;-72
2021/01/14 05:11:57;;;;;;;3.30;1.50;;;;;;;19.75;38.47;100159.84;5114453;28;20391;-74
2021/01/14 05:14:22;;;;;;;2.70;1.70;;;;;;;19.74;38.43;100164.22;5112480;28;20032;-76
2021/01/14 05:16:49;;;;;;;3.33;1.95;;;;;;;19.74;38.43;100156.34;5114100;28;20081;-75
2021/01/14 05:19:15;;;;;;;2.15;1.10;;;;;;;19.75;38.37;100170.34;5114164;28;20510;-75
2021/01/14 05:21:43;;;;;;;2.42;1.50;;;;;;;19.71;38.48;100166.91;5113045;28;20063;-77
2021/01/14 05:24:10;;;;;;;3.65;1.65;;;;;;;19.67;38.47;100169.63;5110237;28;20053;-76
2021/01/14 05:26:36;;;;;;;3.28;1.67;;;;;;;19.66;38.52;100165.25;5095711;28;20036;-75
2021/01/14 05:29:11;;;;;;;2.83;1.42;;;;;;;19.65;38.53;100172.31;5101399;28;20110;-74
2021/01/14 05:31:37;;;;;;;1.58;1.10;;;;;;;19.66;38.55;100162.63;5114045;28;20054;-73
2021/01/14 05:34:05;;;;;;;2.45;1.30;;;;;;;19.65;38.65;100169.66;5112300;28;20027;-74
2021/01/14 05:36:53;;;;;;;2.70;1.35;;;;;;;19.64;38.55;100173.19;5112437;28;20043;-75
2021/01/14 05:39:20;;;;;;;2.75;1.52;;;;;;;19.66;38.27;100174.03;5113939;28;20074;-75
2021/01/14 05:41:47;;;;;;;4.05;1.70;;;;;;;19.66;38.60;100175.78;5113932;28;20042;-75
2021/01/14 05:44:13;;;;;;;2.85;1.35;;;;;;;19.67;38.52;100173.13;5113292;28;20496;-74
2021/01/14 05:46:38;;;;;;;2.15;1.30;;;;;;;19.66;38.57;100171.41;5111789;28;20043;-74
2021/01/14 05:49:04;;;;;;;2.60;1.15;;;;;;;19.67;38.42;100165.25;5113580;28;20039;-75
2021/01/14 05:51:31;;;;;;;1.98;1.20;;;;;;;19.66;38.52;100166.16;5113375;28;20114;-74
2021/01/14 05:54:08;;;;;;;2.85;1.50;;;;;;;19.65;38.49;100163.53;5113499;28;20059;-75
2021/01/14 05:56:47;;;;;;;1.50;0.90;;;;;;;19.65;38.48;100160.91;5113369;28;20035;-74
2021/01/14 05:59:28;;;;;;;2.35;1.17;;;;;;;19.63;38.63;100160.94;5113037;27;20040;-74
2021/01/14 06:01:55;;;;;;;4.57;2.15;;;;;;;19.63;38.53;100158.31;5111507;28;20478;-73
2021/01/14 06:04:22;;;;;;;3.30;1.23;;;;;;;19.61;38.46;100163.63;5113010;28;20043;-77
2021/01/14 06:06:49;;;;;;;2.50;1.30;;;;;;;19.62;38.57;100170.56;5113118;28;20051;-73
2021/01/14 06:09:17;;;;;;;2.65;1.40;;;;;;;19.62;38.38;100180.25;5112990;28;20055;-74
2021/01/14 06:11:44;;;;;;;1.85;1.00;;;;;;;19.62;38.36;100169.72;5096917;28;20036;-74
2021/01/14 06:14:32;;;;;;;2.05;1.10;;;;;;;19.61;38.41;100173.25;5114064;27;20487;-74
2021/01/14 06:17:02;;;;;;;1.83;1.02;;;;;;;19.59;38.46;100175.91;5132266;27;20073;-76
2021/01/14 06:19:29;;;;;;;3.75;1.48;;;;;;;19.61;38.40;100168.00;5113529;27;20499;-71
2021/01/14 06:21:58;;;;;;;8.48;1.50;;;;;;;19.62;38.57;100164.47;5109633;28;20407;-73
2021/01/14 06:24:43;;;;;;;5.32;1.33;;;;;;;19.63;38.78;100167.06;5107016;28;20038;-76
2021/01/14 06:27:10;;;;;;;3.50;1.48;;;;;;;19.65;38.54;100168.78;5110391;28;20030;-78
2021/01/14 06:29:37;;;;;;;4.70;1.58;;;;;;;19.63;38.40;100172.31;5112417;28;20042;-75
2021/01/14 06:32:13;;;;;;;15.27;2.03;;;;;;;19.69;38.43;100179.25;5112087;28;20027;-78
2021/01/14 06:34:43;;;;;;;5.35;1.48;;;;;;;19.70;38.31;100180.94;5110799;28;20135;-72
2021/01/14 06:37:11;;;;;;;6.85;1.45;;;;;;;19.70;38.53;100180.94;5110879;28;20180;-73
2021/01/14 06:39:45;;;;;;;6.05;1.35;;;;;;;19.73;38.49;100183.53;5112192;28;20028;-75
2021/01/14 06:42:16;;;;;;;2.30;1.20;;;;;;;19.74;38.47;100174.72;5110938;28;20534;-76
2021/01/14 06:44:53;;;;;;;4.25;1.40;;;;;;;19.77;38.49;100174.69;5112081;28;20027;-74
2021/01/14 06:47:44;;;;;;;4.82;1.60;;;;;;;19.78;38.62;100173.78;5109649;28;20035;-73
2021/01/14 06:50:18;;;;;;;8.20;3.20;;;;;;;19.82;38.61;100173.72;5109773;28;20042;-75
2021/01/14 06:53:10;;;;;;;5.55;2.92;;;;;;;19.78;38.74;100179.03;5093577;28;20023;-73
2021/01/14 06:55:38;;;;;;;6.47;2.97;;;;;;;19.77;38.54;100173.84;5111186;28;20108;-74
2021/01/14 06:58:18;;;;;;;5.07;2.40;;;;;;;19.77;38.86;100173.84;5110103;28;20107;-76
2021/01/14 07:00:45;;;;;;;5.70;2.33;;;;;;;19.78;38.67;100173.78;5109520;28;20104;-74
2021/01/14 07:03:14;;;;;;;5.18;2.45;;;;;;;19.80;38.73;100171.13;5111034;28;20040;-73
2021/01/14 07:05:51;;;;;;;6.68;2.55;;;;;;;19.81;38.57;100177.25;5111179;28;20077;-72
2021/01/14 07:08:39;;;;;;;5.22;2.33;;;;;;;19.83;38.72;100175.47;5111293;28;20020;-74
2021/01/14 07:11:09;;;;;;;9.93;2.83;;;;;;;19.83;38.92;100178.09;5104001;28;20100;-73
2021/01/14 07:13:43;;;;;;;7.03;2.30;;;;;;;19.80;38.74;100163.22;5110803;28;20053;-74
2021/01/14 07:16:10;;;;;;;5.45;2.55;;;;;;;19.84;38.72;100169.31;5091745;28;20446;-75
2021/01/14 07:18:38;;;;;;;34.92;2.70;;;;;;;19.81;38.83;100161.47;5106122;28;20528;-73
2021/01/14 07:21:25;;;;;;;6.05;2.30;;;;;;;19.82;38.76;100163.22;5111713;28;20399;-73
2021/01/14 07:23:56;;;;;;;7.20;2.20;;;;;;;19.77;38.76;100169.41;5110250;28;20108;-76
2021/01/14 07:26:23;;;;;;;15.70;2.35;;;;;;;19.76;38.93;100174.72;5108974;28;20526;-75
2021/01/14 07:28:50;;;;;;;6.97;1.88;;;;;;;19.75;38.89;100170.34;5109306;28;20110;-75
2021/01/14 07:31:20;;;;;;;6.60;1.83;;;;;;;19.76;38.43;100178.22;5111634;28;20031;-74
2021/01/14 07:33:46;;;;;;;5.13;2.17;;;;;;;19.73;38.56;100180.03;5111679;28;20213;-74
2021/01/14 07:36:18;;;;;;;7.63;1.65;;;;;;;19.71;38.49;100177.41;5111516;27;20042;-74
2021/01/14 07:38:50;;;;;;;10.73;2.10;;;;;;;19.68;38.46;100176.63;5111258;28;20053;-74
2021/01/14 07:41:15;;;;;;;8.70;2.00;;;;;;;19.66;38.16;100170.53;5111997;28;20028;-74
2021/01/14 07:43:45;;;;;;;6.10;2.03;;;;;;;19.64;38.26;100175.81;5111429;28;20069;-74
2021/01/14 07:46:28;;;;;;;5.65;1.85;;;;;;;19.58;37.73;100178.56;5111126;28;20063;-75
2021/01/14 07:48:54;;;;;;;13.00;1.67;;;;;;;19.56;37.80;100185.59;5111114;28;20487;-75
2021/01/14 07:51:20;;;;;;;9.23;2.42;;;;;;;19.55;37.83;100182.13;5111507;28;20034;-76
2021/01/14 07:54:06;;;;;;;12.75;2.33;;;;;;;19.54;37.72;100190.06;5109980;28;20024;-74
2021/01/14 07:56:44;;;;;;;10.65;2.10;;;;;;;19.57;37.91;100190.84;5106101;28;20039;-76
2021/01/14 07:59:10;;;;;;;7.88;2.00;;;;;;;19.58;37.87;100189.97;5111664;28;20032;-73
2021/01/14 08:02:06;;;;;;;7.82;1.88;;;;;;;19.56;37.93;100182.97;5111416;28;20095;-73
2021/01/14 08:04:44;;;;;;;6.18;2.13;;;;;;;19.54;37.95;100190.06;5102251;28;20031;-74
2021/01/14 08:07:28;;;;;;;11.98;2.13;;;;;;;19.59;37.80;100191.69;5115776;28;20395;-73
2021/01/14 08:09:53;;;;;;;8.32;2.40;;;;;;;19.61;37.82;100196.91;5114277;28;20063;-73
2021/01/14 08:12:20;;;;;;;7.00;2.45;;;;;;;19.58;37.77;100199.59;5115258;28;20487;-74
2021/01/14 08:14:46;;;;;;;8.57;1.67;;;;;;;19.56;38.17;100197.00;5103369;28;20032;-73
2021/01/14 08:17:22;;;;;;;3.97;1.77;;;;;;;19.55;38.11;100192.63;5094790;28;20518;-74
2021/01/14 08:19:48;;;;;;;9.00;2.28;;;;;;;19.57;38.18;100190.84;5094649;28;20082;-77
2021/01/14 08:22:14;;;;;;;8.15;1.90;;;;;;;19.59;37.91;100190.81;5097443;28;20059;-74
2021/01/14 08:24:54;;;;;;;6.63;1.70;;;;;;;19.58;37.97;100196.97;5115014;28;20036;-72
2021/01/14 08:27:28;;;;;;;6.95;2.03;;;;;;;19.58;38.15;100203.09;5114900;28;20530;-74
2021/01/14 08:30:12;;;;;;;4.10;1.58;;;;;;;19.55;38.06;100211.03;5114843;27;20035;-72
2021/01/14 08:32:48;;;;;;;5.88;2.08;;;;;;;19.56;38.07;100219.78;5117898;27;20072;-73
2021/01/14 08:35:16;;;;;;;7.13;1.92;;;;;;;19.55;38.37;100225.91;5134136;27;20119;-72
2021/01/14 08:37:45;;;;;;;10.15;2.38;;;;;;;19.54;38.32;100222.44;5135537;27;20391;-74
2021/01/14 08:40:11;;;;;;;7.50;2.58;;;;;;;19.56;38.15;100227.66;5129038;27;20503;-73
2021/01/14 08:42:39;;;;;;;8.07;2.22;;;;;;;19.55;38.22;100224.19;5094656;28;20036;-77
2021/01/14 08:45:14;;;;;;;12.50;2.75;;;;;;;19.54;38.18;100219.81;5094471;28;20400;-73
2021/01/14 08:47:51;;;;;;;16.13;2.90;;;;;;;19.55;38.24;100225.91;5092818;28;20032;-74
2021/01/14 08:50:38;;;;;;;10.35;1.85;;;;;;;19.57;38.03;100240.78;5109690;28;20034;-75
2021/01/14 08:53:06;;;;;;;8.48;2.25;;;;;;;19.56;38.18;100236.44;5106661;28;20040;-74
2021/01/14 08:55:31;;;;;;;6.60;2.55;;;;;;;19.57;38.12;100246.06;5113969;28;20038;-75
2021/01/14 08:57:57;;;;;;;10.57;2.42;;;;;;;19.58;38.16;100249.53;5114405;27;20024;-73
2021/01/14 09:00:26;;;;;;;7.93;1.90;;;;;;;19.55;38.18;100254.84;5114170;28;20059;-75
2021/01/14 09:02:52;;;;;;;5.93;1.95;;;;;;;19.55;38.00;100257.47;5099645;28;20053;-76
2021/01/14 09:05:18;;;;;;;7.70;2.13;;;;;;;19.55;38.06;100262.72;5094235;28;20040;-72
2021/01/14 09:08:06;;;;;;;6.95;2.20;;;;;;;19.55;37.80;100266.22;5114066;28;20043;-74
2021/01/14 09:10:45;;;;;;;6.20;2.13;;;;;;;19.55;38.18;100271.50;5109402;28;20119;-72
2021/01/14 09:13:13;;;;;;;4.75;2.10;;;;;;;19.56;38.14;100256.56;5099233;28;20044;-74
2021/01/14 09:15:39;;;;;;;7.07;2.47;;;;;;;19.58;37.89;100270.56;5111925;28;20038;-73
2021/01/14 09:18:04;;;;;;;5.03;1.73;;;;;;;19.54;38.07;100264.50;5113001;28;20442;-72
2021/01/14 09:20:30;;;;;;;5.80;2.15;;;;;;;19.58;37.74;100273.19;5113711;28;20514;-71
2021/01/14 09:23:17;;;;;;;7.28;1.73;;;;;;;19.55;37.91;100270.59;5112813;28;20032;-74
2021/01/14 09:25:44;;;;;;;3.95;1.85;;;;;;;19.54;37.87;100266.28;5112683;28;20519;-73
2021/01/14 09:28:11;;;;;;;5.00;1.80;;;;;;;19.53;37.99;100268.00;5113822;27;20032;-73
2021/01/14 09:30:36;;;;;;;6.57;2.22;;;;;;;19.57;37.64;100263.56;5114103;28;20464;-73
2021/01/14 09:33:02;;;;;;;5.78;1.98;;;;;;;19.55;37.93;100270.59;5114146;28;20535;-76
2021/01/14 09:35:27;;;;;;;5.28;2.17;;;;;;;19.54;37.73;100267.13;5113775;28;20027;-75
2021/01/14 09:37:53;;;;;;;7.53;2.42;;;;;;;19.53;37.73;100273.28;5113946;28;20047;-73
2021/01/14 09:40:20;;;;;;;4.97;2.17;;;;;;;19.52;37.37;100271.53;5112684;28;20036;-73
2021/01/14 09:42:50;;;;;;;6.13;2.15;;;;;;;19.54;37.59;100267.13;5112631;28;20507;-74
2021/01/14 09:45:20;;;;;;;5.10;2.15;;;;;;;19.52;37.58;100282.06;5113845;28;20035;-77
2021/01/14 09:47:50;;;;;;;4.13;1.98;;;;;;;19.52;37.54;100274.16;5112909;28;20063;-76
2021/01/14 09:50:16;;;;;;;5.28;1.83;;;;;;;19.53;37.67;100272.41;5113117;28;20642;-73
2021/01/14 09:52:43;;;;;;;4.45;2.03;;;;;;;19.54;37.69;100268.91;5113511;28;20031;-74
2021/01/14 09:55:12;;;;;;;5.93;2.03;;;;;;;19.54;37.81;100263.66;5112084;28;20434;-74
2021/01/14 09:57:44;;;;;;;5.05;2.22;;;;;;;19.56;37.92;100262.72;5112940;28;20038;-74
2021/01/14 10:00:13;;;;;;;6.53;2.38;;;;;;;19.55;38.02;100246.94;5112117;28;20038;-72
2021/01/14 10:02:40;;;;;;;5.60;2.13;;;;;;;19.56;38.03;100244.31;5125759;27;20088;-75
2021/01/14 10:05:13;;;;;;;6.85;2.30;;;;;;;19.58;38.03;100239.91;5133293;27;20039;-74
2021/01/14 10:07:42;;;;;;;10.27;2.85;;;;;;;19.61;37.75;100244.22;5095596;27;20048;-74
2021/01/14 10:10:07;;;;;;;8.30;2.75;;;;;;;19.61;38.07;100231.97;5094043;28;20036;-76
2021/01/14 10:12:33;;;;;;;4.97;2.10;;;;;;;19.62;37.92;100238.94;5112602;28;20046;-73
2021/01/14 10:15:08;;;;;;;8.32;2.28;;;;;;;19.63;38.04;100238.03;5111406;28;20034;-74
2021/01/14 10:17:40;;;;;;;7.75;2.47;;;;;;;19.66;38.01;100234.50;5112567;28;20565;-75
2021/01/14 10:20:07;;;;;;;4.97;1.65;;;;;;;19.67;38.08;100235.34;5112215;28;20062;-74
2021/01/14 10:22:35;;;;;;;5.13;2.20;;;;;;;19.69;38.13;100230.94;5112537;28;20097;-75
2021/01/14 10:25:08;;;;;;;6.63;2.42;;;;;;;19.69;38.30;100237.06;5111477;28;20032;-74
2021/01/14 10:27:34;;;;;;;4.65;2.35;;;;;;;19.71;38.03;100239.66;5112563;28;20043;-74
2021/01/14 10:30:16;;;;;;;7.47;2.30;;;;;;;19.72;38.23;100223.00;5112788;28;20038;-76
2021/01/14 10:32:42;;;;;;;5.43;2.10;;;;;;;19.73;38.17;100225.59;5111018;28;20129;-75
2021/01/14 10:35:07;;;;;;;5.05;1.95;;;;;;;19.73;38.28;100222.97;5112609;28;20547;-74
2021/01/14 10:37:35;;;;;;;6.43;2.50;;;;;;;19.74;38.41;100227.31;5112374;28;20047;-75
2021/01/14 10:40:16;;;;;;;5.43;2.40;;;;;;;19.77;38.15;100221.16;5112536;28;20083;-75
2021/01/14 10:42:46;;;;;;;4.80;1.90;;;;;;;19.76;38.47;100220.28;5112668;27;20038;-74
2021/01/14 10:45:12;;;;;;;5.85;1.88;;;;;;;19.78;38.37;100214.97;5112710;28;20496;-74
2021/01/14 10:47:40;;;;;;;4.38;2.05;;;;;;;19.81;38.27;100219.31;5112315;28;20045;-72
2021/01/14 10:50:33;;;;;;;5.80;2.28;;;;;;;19.78;38.40;100210.59;5112759;28;20039;-75
2021/01/14 10:53:05;;;;;;;10.98;2.75;;;;;;;19.80;38.25;100214.97;5109931;28;20423;-74
2021/01/14 10:55:31;;;;;;;8.55;2.90;;;;;;;19.81;38.14;100200.91;5112386;28;20416;-74
2021/01/14 10:57:58;;;;;;;6.05;2.42;;;;;;;19.82;38.39;100203.50;5112453;28;20034;-75
2021/01/14 11:00:25;;;;;;;5.65;1.90;;;;;;;19.82;38.30;100202.66;5108020;28;20043;-75
2021/01/14 11:03:10;;;;;;;8.45;2.70;;;;;;;19.81;38.42;100200.91;5096189;28;20040;-73
2021/01/14 11:05:45;;;;;;;4.30;2.10;;;;;;;19.82;38.56;100206.13;5095086;28;20106;-72
2021/01/14 11:08:16;;;;;;;4.15;2.10;;;;;;;19.81;38.32;100206.19;5091935;28;20055;-75
2021/01/14 11:10:43;;;;;;;5.35;1.90;;;;;;;19.81;38.38;100199.13;5097373;28;20028;-75
2021/01/14 11:13:13;;;;;;;4.45;2.00;;;;;;;19.82;38.43;100203.50;5112219;28;20028;-75
2021/01/14 11:15:38;;;;;;;6.53;2.13;;;;;;;19.83;38.47;100201.75;5093642;28;20024;-72
2021/01/14 11:18:07;;;;;;;5.45;2.13;;;;;;;19.83;38.56;100199.97;5118366;27;20042;-75
2021/01/14 11:20:36;;;;;;;5.20;2.03;;;;;;;19.85;38.52;100202.59;5131170;27;20031;-75
2021/01/14 11:23:01;;;;;;;5.55;2.50;;;;;;;19.84;38.78;100209.59;5132609;27;20031;-74
2021/01/14 11:25:27;;;;;;;5.18;1.75;;;;;;;19.83;38.57;100207.03;5132302;27;20097;-73
2021/01/14 11:27:53;;;;;;;3.75;2.03;;;;;;;19.83;38.69;100207.88;5132248;27;20544;-73
2021/01/14 11:30:22;;;;;;;5.15;1.98;;;;;;;19.83;38.39;100205.25;5131065;28;20031;-74
2021/01/14 11:32:47;;;;;;;6.22;2.35;;;;;;;19.82;38.80;100203.50;5131084;28;20019;-74
2021/01/14 11:35:13;;;;;;;6.85;2.42;;;;;;;19.82;38.64;100206.13;5134338;27;20110;-74